createdAt,value
2023-03-24T00:03:59.316Z,74.46
2023-03-24T00:08:55.976Z,74.57
2023-03-24T00:13:52.659Z,74.57
2023-03-24T00:18:53.852Z,74.49
2023-03-24T00:23:56.236Z,74.74
2023-03-24T00:28:53.047Z,74.88
2023-03-24T00:33:51.276Z,74.87
2023-03-24T00:38:48.568Z,75.31
2023-03-24T00:43:50.935Z,75.38
2023-03-24T00:48:51.108Z,75.67
2023-03-24T00:53:47.767Z,75.61
2023-03-24T00:58:46.641Z,75.61
2023-03-24T01:03:48.244Z,75.84
2023-03-24T01:08:45.875Z,75.91
2023-03-24T01:13:42.616Z,75.89
2023-03-24T01:18:40.785Z,75.87
2023-03-24T01:23:37.425Z,76.27
2023-03-24T01:28:39.950Z,76.27
2023-03-24T01:33:37.711Z,76.47
2023-03-24T01:38:34.733Z,76.55
2023-03-24T01:43:33.629Z,77.05
2023-03-24T01:48:38.587Z,76.95
2023-03-24T01:53:38.878Z,77.16
2023-03-24T01:58:37.062Z,76.95
2023-03-24T02:03:38.931Z,77.49
2023-03-24T02:08:48.325Z,77.22
2023-03-24T02:13:44.946Z,77.48
2023-03-24T02:19:00.573Z,77.81
2023-03-24T02:24:16.434Z,77.44
2023-03-24T02:29:31.318Z,77.61
2023-03-24T02:34:49.949Z,77.76
2023-03-24T02:40:20.877Z,77.99
2023-03-24T02:45:35.798Z,77.91
2023-03-24T02:50:42.274Z,78.40
2023-03-24T02:55:44.805Z,78.48
2023-03-24T03:00:47.522Z,78.65
2023-03-24T03:05:49.257Z,78.34
2023-03-24T03:10:47.827Z,78.49
2023-03-24T03:15:47.991Z,78.31
2023-03-24T03:20:53.152Z,78.95
2023-03-24T03:25:53.403Z,78.67
2023-03-24T03:30:59.312Z,79.12
2023-03-24T03:36:14.471Z,79.24
2023-03-24T03:41:11.387Z,78.88
2023-03-24T03:46:08.626Z,79.33
2023-03-24T03:51:13.909Z,79.05
2023-03-24T03:56:11.229Z,79.43
2023-03-24T04:01:07.642Z,79.12
2023-03-24T04:06:30.034Z,79.67
2023-03-24T04:11:34.144Z,79.80
2023-03-24T04:16:45.493Z,79.71
2023-03-24T04:22:03.018Z,80.12
2023-03-24T04:27:02.973Z,79.79
2023-03-24T04:32:05.831Z,79.95
2023-03-24T04:37:12.669Z,80.16
2023-03-24T04:42:21.132Z,80.08
2023-03-24T04:47:20.552Z,80.19
2023-03-24T04:52:18.074Z,80.58
2023-03-24T04:57:15.787Z,80.59
2023-03-24T05:02:12.481Z,80.81
2023-03-24T05:07:08.997Z,80.47
2023-03-24T05:12:06.380Z,80.71
2023-03-24T05:17:05.076Z,80.93
2023-03-24T05:22:01.890Z,81.24
2023-03-24T05:26:58.436Z,80.95
2023-03-24T05:31:54.931Z,81.15
2023-03-24T05:37:20.419Z,81.28
2023-03-24T05:42:27.927Z,81.46
2023-03-24T05:47:24.482Z,81.29
2023-03-24T05:52:21.526Z,81.06
2023-03-24T05:57:21.272Z,81.81
2023-03-24T06:02:34.627Z,81.66
2023-03-24T06:07:32.172Z,81.84
2023-03-24T06:32:45.394Z,81.72
2023-03-24T16:44:37.216Z,49.79
2023-03-24T16:49:37.843Z,50.28
2023-03-24T16:54:34.828Z,50.46
2023-03-24T16:59:32.558Z,50.52
2023-03-24T18:52:52.135Z,56.76
2023-03-24T21:26:58.029Z,62.62
2023-03-24T21:31:55.895Z,63.54
2023-03-24T21:36:55.427Z,63.31
2023-03-24T21:41:52.231Z,63.68
2023-03-24T21:46:48.749Z,63.47
2023-03-24T21:51:45.262Z,63.95
2023-03-24T21:56:41.764Z,63.80
2023-03-24T22:01:38.268Z,63.88
2023-03-24T22:06:37.725Z,64.06
2023-03-24T22:11:35.682Z,64.48
2023-03-24T22:16:33.007Z,64.50
2023-03-24T22:21:29.637Z,64.58
2023-03-24T22:26:26.179Z,64.76
2023-03-24T22:31:24.802Z,64.93
2023-03-24T22:36:21.313Z,64.92
2023-03-24T22:41:17.829Z,64.84
2023-03-24T22:46:14.343Z,65.44
2023-03-24T22:51:16.630Z,65.16
2023-03-24T22:56:13.732Z,65.63
2023-03-24T23:01:10.408Z,65.73
2023-03-24T23:06:07.321Z,66.02
2023-03-24T23:11:06.427Z,66.06
2023-03-24T23:16:02.914Z,66.06
2023-03-24T23:21:09.016Z,66.50
2023-03-24T23:26:11.153Z,66.08
2023-03-24T23:31:13.413Z,66.00
2023-03-24T23:36:15.980Z,66.60
2023-03-24T23:41:15.100Z,66.72
2023-03-24T23:46:11.874Z,66.42
2023-03-24T23:51:08.364Z,66.18
2023-03-24T23:56:07.233Z,66.36
